Time;durP1;ratioP1;P1;durP2;ratioP2;P2;SDS_P1;SDS_P2;PMS_P1;PMS_P2;Temp;Humidity;BMP_temperature;BMP_pressure;BME280_temperature;BME280_humidity;BME280_pressure;Samples;Min_cycle;Max_cycle;Signal;HPM_P1;HPM_P2
2021/04/12 00:00:19;;;;;;;0.30;0.30;;;;;;;6.82;58.88;99849.31;4971630;28;20801;-61
2021/04/12 00:03:15;;;;;;;0.43;0.43;;;;;;;6.80;58.83;99845.06;4974852;28;20587;-61
2021/04/12 00:05:44;;;;;;;0.32;0.32;;;;;;;6.77;58.71;99850.88;4974819;28;20542;-60
2021/04/12 00:08:10;;;;;;;0.20;0.20;;;;;;;6.77;58.69;99853.63;4971840;28;20035;-60
2021/04/12 00:10:43;;;;;;;0.20;0.20;;;;;;;6.75;58.83;99856.53;4971097;28;20054;-62
2021/04/12 00:13:17;;;;;;;0.50;0.50;;;;;;;6.75;58.77;99844.78;4971414;28;20035;-60
2021/04/12 00:16:09;;;;;;;0.20;0.20;;;;;;;6.77;58.63;99845.44;4971735;28;20047;-61
2021/04/12 00:18:50;;;;;;;0.20;0.20;;;;;;;6.79;58.58;99843.38;4957323;28;20175;-61
2021/04/12 00:21:44;;;;;;;0.20;0.20;;;;;;;6.79;58.58;99849.69;4971282;28;20126;-61
2021/04/12 00:24:23;;;;;;;0.20;0.20;;;;;;;6.79;58.14;99854.31;4965474;28;20050;-63
2021/04/12 00:26:54;;;;;;;0.40;0.40;;;;;;;6.81;58.56;99854.94;4971525;28;20282;-61
2021/04/12 00:29:30;;;;;;;0.40;0.40;;;;;;;6.80;58.57;99859.56;5044540;28;20037;-60
2021/04/12 00:32:06;;;;;;;0.20;0.20;;;;;;;6.80;58.47;99856.84;5075112;28;20040;-60
2021/04/12 00:34:32;;;;;;;0.20;0.20;;;;;;;6.80;58.55;99858.72;5075521;28;20040;-60
2021/04/12 00:37:08;;;;;;;0.43;0.43;;;;;;;6.78;58.72;99863.50;5071255;28;20047;-61
2021/04/12 00:39:48;;;;;;;0.20;0.20;;;;;;;6.75;58.67;99863.88;5095308;28;20040;-60
2021/04/12 00:42:27;;;;;;;0.10;0.10;;;;;;;6.72;58.81;99862.38;5095599;28;20034;-60
2021/04/12 00:45:08;;;;;;;0.20;0.20;;;;;;;6.68;58.85;99861.03;5095513;28;20036;-62
2021/04/12 00:48:08;;;;;;;0.20;0.20;;;;;;;6.64;58.92;99863.28;5095080;28;20036;-63
2021/04/12 00:50:55;;;;;;;0.30;0.30;;;;;;;6.62;58.95;99864.50;5095684;28;20039;-61
2021/04/12 00:53:32;;;;;;;0.20;0.20;;;;;;;6.59;59.00;99865.69;5095256;28;20035;-61
2021/04/12 00:56:07;;;;;;;0.20;0.20;;;;;;;6.55;59.12;99869.84;5095144;28;20061;-61
2021/04/12 00:58:54;;;;;;;0.13;0.13;;;;;;;6.51;59.29;99867.66;5094986;28;20536;-60
2021/04/12 01:01:36;;;;;;;0.20;0.20;;;;;;;6.44;59.42;99871.09;5110670;28;20126;-62
2021/04/12 01:04:17;;;;;;;0.30;0.30;;;;;;;6.40;59.46;99871.66;5076696;28;20036;-60
2021/04/12 01:07:13;;;;;;;0.20;0.20;;;;;;;6.35;59.45;99879.56;5095285;28;20154;-60
2021/04/12 01:10:15;;;;;;;0.20;0.20;;;;;;;6.32;59.57;99881.59;5095415;28;20036;-60
2021/04/12 01:13:03;;;;;;;0.20;0.20;;;;;;;6.29;59.45;99873.78;5094912;28;20032;-59
2021/04/12 01:15:54;;;;;;;0.20;0.20;;;;;;;6.24;59.57;99873.50;5094696;28;20060;-59
2021/04/12 01:18:47;;;;;;;0.20;0.20;;;;;;;6.21;59.63;99878.44;5094944;28;20028;-60
2021/04/12 01:21:28;;;;;;;0.30;0.30;;;;;;;6.20;59.62;99877.59;5110914;28;20032;-60
2021/04/12 01:24:18;;;;;;;0.20;0.20;;;;;;;6.19;59.66;99888.69;5094612;28;20501;-58
2021/04/12 01:27:08;;;;;;;0.20;0.20;;;;;;;6.14;59.80;99879.16;5094915;28;20405;-59
2021/04/12 01:30:12;;;;;;;0.20;0.20;;;;;;;6.18;59.71;99884.25;5094795;28;20532;-60
2021/04/12 01:32:59;;;;;;;0.32;0.32;;;;;;;6.19;59.65;99892.25;5094496;28;20027;-60
2021/04/12 01:36:02;;;;;;;0.22;0.22;;;;;;;6.23;59.52;99896.31;5093089;28;20055;-60
2021/04/12 01:38:59;;;;;;;0.20;0.20;;;;;;;6.28;59.36;99907.53;5074364;28;20032;-60
2021/04/12 01:41:36;;;;;;;0.20;0.20;;;;;;;6.34;59.16;99908.69;5074266;28;20056;-59
2021/04/12 01:44:20;;;;;;;0.20;0.20;;;;;;;6.43;59.09;99917.69;5073953;28;20109;-60
2021/04/12 01:46:54;;;;;;;0.20;0.20;;;;;;;6.53;58.95;99920.19;5073917;28;20398;-59
2021/04/12 01:49:46;;;;;;;0.20;0.20;;;;;;;6.64;58.56;99927.91;5074335;28;20033;-59
2021/04/12 01:52:30;;;;;;;0.30;0.30;;;;;;;6.74;58.49;99934.00;5074315;28;20032;-60
2021/04/12 01:55:10;;;;;;;;;;;;;;;6.86;58.09;99931.69;5092013;28;20028;-59
2021/04/12 01:58:02;;;;;;;0.10;0.10;;;;;;;6.97;57.87;99936.72;5085082;28;19920;-61
2021/04/12 02:00:34;;;;;;;0.40;0.40;;;;;;;7.10;57.70;99943.44;5029690;28;20080;-59
2021/04/12 02:03:36;;;;;;;0.20;0.20;;;;;;;7.22;57.69;99939.22;5024951;28;20398;-59
2021/04/12 02:06:22;;;;;;;0.50;0.50;;;;;;;7.32;57.54;99939.81;5027796;28;20064;-61
2021/04/12 02:08:58;;;;;;;0.20;0.20;;;;;;;7.46;57.35;99946.31;5026055;28;20128;-59
2021/04/12 02:11:32;;;;;;;0.52;0.40;;;;;;;7.57;57.22;99947.75;5027482;28;20506;-60
2021/04/12 02:14:10;;;;;;;0.20;0.20;;;;;;;7.63;57.26;99959.84;5028144;28;20195;-60
2021/04/12 02:16:59;;;;;;;0.28;0.28;;;;;;;7.81;57.05;99952.09;5028125;28;20584;-60
2021/04/12 02:19:48;;;;;;;0.20;0.20;;;;;;;8.06;56.67;99949.91;5021114;28;20103;-61
2021/04/12 02:22:43;;;;;;;0.20;0.20;;;;;;;8.37;55.97;99945.22;5026829;28;20041;-60
2021/04/12 02:25:24;;;;;;;0.20;0.20;;;;;;;8.71;55.36;99947.31;4981060;28;20141;-60
2021/04/12 02:28:11;;;;;;;0.20;0.20;;;;;;;9.08;54.76;99959.06;4981074;28;20450;-59
2021/04/12 02:30:42;;;;;;;0.40;0.40;;;;;;;9.44;54.31;99951.75;4986318;28;20042;-57
2021/04/12 02:33:19;;;;;;;0.25;0.25;;;;;;;9.85;53.72;99955.59;4991272;28;20194;-57
2021/04/12 02:35:51;;;;;;;0.20;0.20;;;;;;;10.12;53.21;99962.09;4991315;28;20065;-62
2021/04/12 02:38:25;;;;;;;0.20;0.20;;;;;;;10.41;52.95;99962.84;5007384;28;20120;-60
2021/04/12 02:41:15;;;;;;;0.20;0.20;;;;;;;10.68;52.51;99959.16;5011318;28;20061;-60
2021/04/12 02:44:30;;;;;;;0.20;0.20;;;;;;;10.80;52.65;99962.13;5027254;28;20041;-57
2021/04/12 02:47:26;;;;;;;0.20;0.20;;;;;;;10.74;53.18;99973.97;5010843;28;20037;-57
2021/04/12 02:50:08;;;;;;;0.30;0.30;;;;;;;10.67;53.56;99979.44;5010485;28;20406;-59
2021/04/12 02:52:51;;;;;;;0.20;0.20;;;;;;;10.55;53.79;99980.25;5016846;28;20088;-59
2021/04/12 02:55:23;;;;;;;0.20;0.20;;;;;;;10.42;54.41;99990.09;5042833;28;20045;-61
2021/04/12 02:57:51;;;;;;;0.30;0.30;;;;;;;10.34;54.76;99995.78;5028578;28;20057;-59
2021/04/12 03:00:37;;;;;;;0.20;0.20;;;;;;;10.32;54.93;99990.47;5018641;28;20538;-59
2021/04/12 03:03:57;;;;;;;0.20;0.20;;;;;;;10.34;54.88;99990.31;5065342;28;20048;-60
2021/04/12 03:07:03;;;;;;;0.20;0.20;;;;;;;10.42;54.96;99987.38;5030675;28;20045;-58
2021/04/12 03:10:05;;;;;;;0.30;0.30;;;;;;;10.60;54.65;99992.31;5027678;28;20035;-60
2021/04/12 03:12:52;;;;;;;0.30;0.30;;;;;;;10.73;54.45;99987.91;5030066;28;20079;-58
2021/04/12 03:15:58;;;;;;;0.20;0.20;;;;;;;10.97;53.98;99984.59;5030037;28;20453;-60
2021/04/12 03:18:42;;;;;;;;;;;;;;;11.22;53.45;99979.31;5001471;28;20033;-59
2021/04/12 03:21:42;;;;;;;0.20;0.20;;;;;;;11.43;53.14;99985.66;5031114;28;19924;-60
2021/04/12 03:24:26;;;;;;;0.20;0.20;;;;;;;11.58;53.03;99989.03;5028760;28;20284;-58
2021/04/12 03:27:02;;;;;;;0.20;0.20;;;;;;;11.77;52.63;99986.50;5029557;28;20061;-63
2021/04/12 03:29:50;;;;;;;0.20;0.20;;;;;;;11.94;52.70;99986.94;5026517;28;20494;-60
2021/04/12 03:32:16;;;;;;;1.45;0.47;;;;;;;12.06;52.55;99998.13;4971518;28;20521;-58
2021/04/12 03:35:00;;;;;;;0.10;0.10;;;;;;;12.17;52.21;100002.94;4970539;28;20074;-60
2021/04/12 03:37:56;;;;;;;0.20;0.20;;;;;;;12.21;52.44;100004.22;4971284;28;20138;-59
2021/04/12 03:40:38;;;;;;;0.20;0.20;;;;;;;12.25;52.33;99999.13;4995696;28;20062;-61
2021/04/12 03:43:23;;;;;;;0.20;0.20;;;;;;;12.25;52.49;99996.38;5010346;28;20038;-60
2021/04/12 03:46:29;;;;;;;0.20;0.20;;;;;;;12.15;52.86;100004.25;5005468;28;20069;-62
2021/04/12 03:49:16;;;;;;;0.20;0.20;;;;;;;12.20;52.55;100008.00;5010986;28;20077;-60
2021/04/12 03:51:59;;;;;;;0.20;0.20;;;;;;;12.39;52.25;100008.19;5010989;28;20088;-60
2021/04/12 03:55:09;;;;;;;0.10;0.10;;;;;;;12.56;51.92;100011.31;5010074;28;20045;-60
2021/04/12 03:58:04;;;;;;;0.13;0.13;;;;;;;12.80;51.51;100017.97;5027787;28;20160;-61
2021/04/12 04:00:44;;;;;;;0.10;0.10;;;;;;;12.91;51.54;100031.06;5030325;28;20038;-59
2021/04/12 04:03:41;;;;;;;0.10;0.10;;;;;;;12.91;51.55;100025.53;5030491;28;20073;-57
2021/04/12 04:06:32;;;;;;;0.10;0.10;;;;;;;13.03;51.34;100033.09;5032370;28;20479;-57
2021/04/12 04:09:19;;;;;;;0.10;0.10;;;;;;;13.07;51.28;100032.47;5064335;28;20414;-58
2021/04/12 04:12:25;;;;;;;0.20;0.20;;;;;;;13.16;51.35;100046.78;5075910;28;20127;-58
2021/04/12 04:15:08;;;;;;;;;;;;;;;13.30;51.10;100042.06;5014651;28;20415;-57
2021/04/12 04:18:03;;;;;;;0.10;0.10;;;;;;;13.24;51.26;100034.69;4997379;28;19921;-57
2021/04/12 04:20:56;;;;;;;0.20;0.20;;;;;;;13.15;51.33;100039.63;5014449;28;20046;-56
2021/04/12 04:23:40;;;;;;;0.20;0.20;;;;;;;13.06;51.51;100051.94;5013525;28;20103;-58
2021/04/12 04:26:26;;;;;;;0.20;0.20;;;;;;;12.85;52.05;100048.44;4997452;28;20491;-58
2021/04/12 04:29:14;;;;;;;0.10;0.10;;;;;;;12.66;52.45;100054.91;5013877;28;20125;-54
2021/04/12 04:32:06;;;;;;;0.20;0.20;;;;;;;12.55;52.39;100053.69;5014139;28;20038;-59
2021/04/12 04:34:34;;;;;;;0.10;0.10;;;;;;;12.42;52.69;100054.56;5015948;28;20052;-59
2021/04/12 04:37:21;;;;;;;0.70;0.35;;;;;;;12.32;52.98;100063.28;5013236;28;20108;-60
2021/04/12 04:40:11;;;;;;;0.17;0.17;;;;;;;12.26;52.88;100058.63;5013321;28;20522;-61
2021/04/12 04:42:58;;;;;;;0.10;0.10;;;;;;;12.25;52.79;100059.72;5012995;28;20034;-59
2021/04/12 04:45:48;;;;;;;0.68;0.68;;;;;;;12.33;52.55;100055.88;4993957;28;20050;-61
2021/04/12 04:48:44;;;;;;;0.10;0.10;;;;;;;12.42;51.96;100062.84;4989019;28;20069;-57
2021/04/12 04:51:16;;;;;;;0.40;0.40;;;;;;;12.50;51.75;100064.50;5018089;28;20460;-58
2021/04/12 04:53:55;;;;;;;0.10;0.10;;;;;;;12.50;51.78;100064.50;5089528;28;20032;-58
2021/04/12 04:56:59;;;;;;;0.10;0.10;;;;;;;12.44;52.01;100072.56;5095019;28;20101;-60
2021/04/12 04:59:37;;;;;;;0.20;0.20;;;;;;;12.37;52.20;100070.91;5075466;28;20070;-58
2021/04/12 05:02:17;;;;;;;0.30;0.30;;;;;;;12.36;52.11;100069.22;5094924;28;20090;-60
2021/04/12 05:05:20;;;;;;;0.20;0.20;;;;;;;12.32;51.97;100067.94;5094748;28;20028;-61
2021/04/12 05:08:07;;;;;;;0.10;0.10;;;;;;;12.31;52.11;100069.00;5095033;28;20405;-60
2021/04/12 05:10:54;;;;;;;0.10;0.10;;;;;;;12.39;51.80;100063.25;5076675;28;20032;-61
2021/04/12 05:13:57;;;;;;;0.20;0.20;;;;;;;12.41;51.58;100064.75;5095355;28;20036;-60
2021/04/12 05:16:31;;;;;;;0.25;0.25;;;;;;;12.49;51.31;100074.69;5094682;28;20035;-61
2021/04/12 05:19:09;;;;;;;;;;;;;;;12.62;51.05;100063.63;5094849;28;20032;-62
2021/04/12 05:22:03;;;;;;;0.17;0.17;;;;;;;12.70;50.61;100070.78;5094972;28;19916;-61
2021/04/12 05:24:40;;;;;;;0.20;0.20;;;;;;;12.79;50.79;100074.13;5110388;28;20035;-62
2021/04/12 05:27:11;;;;;;;0.52;0.52;;;;;;;12.85;50.64;100062.22;5076503;28;20046;-61
2021/04/12 05:29:58;;;;;;;0.35;0.35;;;;;;;12.84;50.75;100070.72;5094419;28;20032;-62
2021/04/12 05:32:38;;;;;;;0.10;0.10;;;;;;;12.88;50.58;100072.84;5094508;28;20412;-61
2021/04/12 05:35:43;;;;;;;0.10;0.10;;;;;;;13.00;50.00;100073.00;5095094;28;20115;-61
2021/04/12 05:38:23;;;;;;;0.63;0.63;;;;;;;13.10;50.06;100067.84;5012459;28;20080;-62
2021/04/12 05:41:04;;;;;;;0.20;0.20;;;;;;;13.21;49.47;100069.06;5012728;28;20034;-62
2021/04/12 05:43:53;;;;;;;0.10;0.10;;;;;;;13.35;49.34;100066.25;4995830;28;20073;-64
2021/04/12 05:46:48;;;;;;;0.20;0.20;;;;;;;13.48;49.20;100063.38;4995973;28;20475;-63
2021/04/12 05:49:47;;;;;;;0.10;0.10;;;;;;;13.55;49.23;100064.19;5012341;28;20046;-64
2021/04/12 05:52:23;;;;;;;0.20;0.20;;;;;;;13.55;49.36;100077.16;5012314;28;20045;-62
2021/04/12 05:55:15;;;;;;;0.25;0.25;;;;;;;13.55;49.41;100071.63;5012237;28;20053;-60
2021/04/12 05:58:04;;;;;;;0.20;0.20;;;;;;;13.62;49.26;100081.56;4995524;28;20507;-63
2021/04/12 06:01:07;;;;;;;0.20;0.20;;;;;;;13.68;49.06;100079.81;5012176;28;20036;-62
2021/04/12 06:03:44;;;;;;;0.15;0.15;;;;;;;13.71;49.04;100076.59;5012157;28;20046;-66
2021/04/12 06:06:46;;;;;;;0.10;0.10;;;;;;;13.56;49.25;100073.31;5012643;28;20029;-64
2021/04/12 06:09:21;;;;;;;0.20;0.20;;;;;;;13.43;49.48;100077.84;5012503;28;20042;-61
2021/04/12 06:12:14;;;;;;;0.15;0.15;;;;;;;13.40;49.57;100077.47;5012259;28;20030;-60
2021/04/12 06:15:17;;;;;;;0.10;0.10;;;;;;;13.40;49.55;100081.06;5057135;28;20131;-62
2021/04/12 06:17:59;;;;;;;0.22;0.22;;;;;;;13.42;49.53;100078.09;5094261;28;20111;-63
2021/04/12 06:20:43;;;;;;;0.20;0.20;;;;;;;13.47;49.38;100086.53;5094181;28;20476;-63
2021/04/12 06:23:34;;;;;;;0.10;0.10;;;;;;;13.52;49.13;100081.19;5088677;28;20028;-62
2021/04/12 06:26:32;;;;;;;0.20;0.20;;;;;;;13.57;49.08;100083.28;5073875;28;20123;-63
2021/04/12 06:29:29;;;;;;;0.10;0.10;;;;;;;13.56;48.92;100085.22;5058748;28;20040;-64
2021/04/12 06:32:22;;;;;;;0.10;0.10;;;;;;;13.51;49.12;100084.19;5055730;28;20066;-63
2021/04/12 06:35:06;;;;;;;0.10;0.10;;;;;;;13.49;48.82;100078.88;5055258;28;20040;-63
2021/04/12 06:38:09;;;;;;;0.30;0.30;;;;;;;13.51;48.75;100075.91;5073274;28;20530;-61
2021/04/12 06:41:08;;;;;;;0.10;0.10;;;;;;;13.54;48.65;100078.22;5073495;28;20040;-62
2021/04/12 06:43:45;;;;;;;0.20;0.20;;;;;;;13.53;48.55;100077.38;5073493;28;20033;-62
2021/04/12 06:46:48;;;;;;;0.10;0.10;;;;;;;13.58;48.53;100073.94;5072835;28;20113;-61
2021/04/12 06:49:20;;;;;;;0.10;0.10;;;;;;;13.65;48.20;100083.03;5072853;28;20035;-62
2021/04/12 06:52:06;;;;;;;0.57;0.25;;;;;;;13.70;47.95;100080.41;5072723;28;20375;-61
2021/04/12 06:55:09;;;;;;;0.47;0.47;;;;;;;13.77;48.11;100077.63;5072600;28;20071;-63
2021/04/12 06:57:35;;;;;;;0.20;0.20;;;;;;;13.81;47.99;100103.72;5072670;28;20040;-62
2021/04/12 07:00:16;;;;;;;0.80;0.35;;;;;;;13.92;47.78;100088.31;5054613;28;20020;-62
2021/04/12 07:03:12;;;;;;;0.75;0.75;;;;;;;14.06;47.30;100086.28;5073151;28;20028;-64
2021/04/12 07:06:01;;;;;;;0.10;0.10;;;;;;;14.24;46.87;100091.84;5072768;28;20020;-62
2021/04/12 07:08:32;;;;;;;1.08;0.47;;;;;;;14.24;46.83;100102.91;5073289;28;20036;-63
2021/04/12 07:11:23;;;;;;;0.30;0.30;;;;;;;14.09;47.31;100091.34;5072597;28;20036;-67
2021/04/12 07:14:26;;;;;;;0.20;0.20;;;;;;;14.00;47.24;100088.88;5073109;28;20107;-62
2021/04/12 07:17:29;;;;;;;0.15;0.15;;;;;;;13.96;47.22;100101.44;5086160;28;20043;-63
2021/04/12 07:20:03;;;;;;;0.10;0.10;;;;;;;13.82;47.36;100094.34;5092840;28;20447;-60
2021/04/12 07:22:48;;;;;;;0.20;0.20;;;;;;;13.69;47.58;100083.41;5092357;28;20031;-60
2021/04/12 07:25:51;;;;;;;0.10;0.10;;;;;;;13.61;47.91;100106.63;5092139;28;20047;-61
2021/04/12 07:28:45;;;;;;;0.20;0.20;;;;;;;13.59;47.34;100101.31;5073934;28;20028;-59
2021/04/12 07:31:33;;;;;;;0.30;0.30;;;;;;;13.52;47.57;100099.69;5091655;28;20039;-60
2021/04/12 07:34:06;;;;;;;0.10;0.10;;;;;;;13.45;47.27;100111.59;5092102;28;20028;-61
2021/04/12 07:36:59;;;;;;;0.25;0.25;;;;;;;13.45;47.25;100106.06;5102371;28;20058;-59
2021/04/12 07:40:01;;;;;;;0.17;0.17;;;;;;;13.41;47.08;100109.50;5063930;28;20529;-60
2021/04/12 07:42:55;;;;;;;0.25;0.25;;;;;;;13.42;47.13;100111.19;5037871;28;20029;-60
2021/04/12 07:46:03;;;;;;;0.10;0.10;;;;;;;13.40;46.93;100118.84;4994512;28;20129;-61
2021/04/12 07:48:50;;;;;;;0.10;0.10;;;;;;;13.25;47.25;100108.94;4936378;29;20040;-60
2021/04/12 07:51:49;;;;;;;0.13;0.13;;;;;;;13.26;46.80;100112.53;4936542;29;20078;-61
2021/04/12 07:54:46;;;;;;;0.10;0.10;;;;;;;13.30;46.95;100098.06;4936691;29;20474;-61
2021/04/12 07:57:40;;;;;;;0.10;0.10;;;;;;;13.18;46.78;100113.63;4934016;29;20043;-61
2021/04/12 08:00:43;;;;;;;0.10;0.10;;;;;;;13.17;46.99;100111.09;4941121;29;20521;-60
2021/04/12 08:03:46;;;;;;;0.10;0.10;;;;;;;13.17;46.65;100114.69;4955464;29;20035;-60
2021/04/12 08:06:46;;;;;;;0.47;0.47;;;;;;;13.10;46.61;100111.13;4947765;29;20568;-60
2021/04/12 08:09:42;;;;;;;0.17;0.17;;;;;;;13.04;46.49;100115.59;4898142;29;20052;-59
2021/04/12 08:12:26;;;;;;;0.10;0.10;;;;;;;13.01;46.53;100109.69;4880765;29;20124;-59
2021/04/12 08:15:29;;;;;;;0.20;0.20;;;;;;;12.93;46.32;100110.78;4891725;29;20056;-61
2021/04/12 08:18:03;;;;;;;0.15;0.15;;;;;;;12.86;46.58;100108.03;4910042;29;20199;-61
2021/04/12 08:21:06;;;;;;;0.43;0.43;;;;;;;12.78;46.43;100105.53;4915636;29;20060;-61
2021/04/12 08:24:10;;;;;;;0.20;0.20;;;;;;;12.69;46.37;100106.81;4969570;28;20047;-61
2021/04/12 08:27:02;;;;;;;0.10;0.10;;;;;;;12.64;46.38;100104.72;5017838;28;20141;-60
2021/04/12 08:30:12;;;;;;;0.20;0.20;;;;;;;12.66;46.41;100101.75;5015590;28;20037;-61
2021/04/12 08:33:06;;;;;;;0.10;0.10;;;;;;;12.68;46.28;100100.47;4954747;29;20047;-60
2021/04/12 08:35:32;;;;;;;0.13;0.13;;;;;;;12.73;46.25;100099.81;4953068;29;20047;-61
2021/04/12 08:38:19;;;;;;;0.10;0.10;;;;;;;12.76;45.87;100096.63;4954758;29;20039;-61
2021/04/12 08:41:24;;;;;;;0.10;0.10;;;;;;;12.82;45.88;100100.44;4948885;29;20057;-62
2021/04/12 08:44:10;;;;;;;;;;;;;;;12.83;45.73;100091.94;4949092;29;20134;-62
2021/04/12 08:47:00;;;;;;;0.10;0.10;;;;;;;12.80;45.74;100097.91;4987177;28;19944;-61
2021/04/12 08:49:27;;;;;;;0.20;0.20;;;;;;;12.73;45.65;100097.06;4999481;28;20030;-61
2021/04/12 08:52:07;;;;;;;0.10;0.10;;;;;;;12.73;45.64;100097.06;5005621;28;20053;-61
2021/04/12 08:54:51;;;;;;;0.10;0.10;;;;;;;12.81;45.67;100099.59;5001248;28;20179;-62
2021/04/12 08:57:47;;;;;;;0.10;0.10;;;;;;;12.86;45.49;100102.53;4994656;28;20045;-64
2021/04/12 09:00:34;;;;;;;0.10;0.10;;;;;;;12.78;45.38;100100.03;5001365;28;20042;-63
2021/04/12 09:03:12;;;;;;;0.30;0.30;;;;;;;12.71;45.67;100100.03;4998472;28;20034;-62
2021/04/12 09:05:52;;;;;;;0.10;0.10;;;;;;;12.74;45.64;100096.00;5003628;28;20045;-62
2021/04/12 09:08:46;;;;;;;0.10;0.10;;;;;;;12.75;45.46;100097.69;5089434;28;20040;-63
2021/04/12 09:11:48;;;;;;;0.20;0.20;;;;;;;12.78;45.31;100111.06;5083215;28;20035;-61
2021/04/12 09:14:36;;;;;;;0.10;0.10;;;;;;;12.83;44.92;100118.66;5080824;28;20032;-60
2021/04/12 09:17:20;;;;;;;0.10;0.10;;;;;;;12.86;45.00;100109.97;5086088;28;20048;-61
2021/04/12 09:20:23;;;;;;;0.10;0.10;;;;;;;12.92;44.76;100111.84;5094421;28;20039;-60
2021/04/12 09:23:13;;;;;;;0.10;0.10;;;;;;;12.91;44.63;100105.50;5094667;28;20114;-60
2021/04/12 09:26:05;;;;;;;0.10;0.10;;;;;;;12.93;44.63;100106.09;5084708;28;20033;-60
2021/04/12 09:28:49;;;;;;;0.20;0.20;;;;;;;12.93;44.50;100102.50;5085515;28;21773;-61
2021/04/12 09:31:26;;;;;;;0.10;0.10;;;;;;;12.90;44.30;100125.84;5082652;28;20036;-61
2021/04/12 09:34:29;;;;;;;0.10;0.10;;;;;;;12.89;44.50;100118.63;5083570;28;20051;-61
2021/04/12 09:37:28;;;;;;;0.10;0.10;;;;;;;12.87;44.48;100131.78;5090755;28;21810;-60
2021/04/12 09:40:30;;;;;;;0.10;0.10;;;;;;;12.92;44.09;100123.69;5082958;28;20485;-61
2021/04/12 09:43:32;;;;;;;0.10;0.10;;;;;;;12.95;44.06;100130.69;5100544;28;20031;-60
2021/04/12 09:46:23;;;;;;;2.00;0.40;;;;;;;12.93;43.91;100124.56;5078878;28;20049;-59
2021/04/12 09:49:21;;;;;;;0.10;0.10;;;;;;;12.93;43.80;100122.66;5092121;28;20130;-59
2021/04/12 09:52:27;;;;;;;0.10;0.10;;;;;;;12.98;43.88;100127.50;5085187;28;20028;-59
2021/04/12 09:55:30;;;;;;;0.17;0.17;;;;;;;12.97;43.74;100120.31;5082394;28;20119;-60
2021/04/12 09:58:08;;;;;;;0.10;0.10;;;;;;;12.94;43.70;100124.34;5090810;28;20098;-60
2021/04/12 10:00:55;;;;;;;0.10;0.10;;;;;;;12.97;43.35;100125.81;5087582;28;20524;-61
2021/04/12 10:04:05;;;;;;;0.10;0.10;;;;;;;12.97;43.35;100131.34;5086056;28;20036;-61
2021/04/12 10:06:45;;;;;;;0.10;0.10;;;;;;;12.95;43.29;100137.03;5081186;28;20093;-61
2021/04/12 10:09:48;;;;;;;0.10;0.10;;;;;;;13.00;43.08;100133.66;5091883;28;20070;-60
2021/04/12 10:12:42;;;;;;;0.32;0.30;;;;;;;13.02;43.29;100131.50;5083043;28;20407;-61
2021/04/12 10:15:12;;;;;;;0.40;0.40;;;;;;;13.05;43.18;100133.00;5088211;28;20055;-60
2021/04/12 10:17:47;;;;;;;0.10;0.10;;;;;;;13.07;43.30;100128.09;5092421;28;20393;-61
2021/04/12 10:20:34;;;;;;;0.20;0.20;;;;;;;13.10;42.98;100127.66;5087111;28;20040;-63
2021/04/12 10:23:06;;;;;;;0.15;0.15;;;;;;;13.16;43.13;100132.28;5086012;28;20484;-60
2021/04/12 10:25:39;;;;;;;0.20;0.20;;;;;;;13.15;42.90;100136.13;5087541;28;20047;-59
2021/04/12 10:28:11;;;;;;;0.15;0.15;;;;;;;13.14;42.89;100139.94;5090005;28;20028;-60
2021/04/12 10:31:01;;;;;;;0.20;0.20;;;;;;;13.15;42.72;100144.41;5092845;28;20042;-60
2021/04/12 10:33:44;;;;;;;0.10;0.10;;;;;;;13.14;42.68;100142.72;5093086;28;20079;-61
2021/04/12 10:36:45;;;;;;;0.38;0.38;;;;;;;13.14;42.57;100128.91;5100248;28;20043;-60
2021/04/12 10:39:25;;;;;;;0.20;0.20;;;;;;;13.15;42.61;100138.91;5105911;28;20024;-61
2021/04/12 10:42:00;;;;;;;0.10;0.10;;;;;;;13.17;42.34;100146.94;5077583;28;20035;-61
2021/04/12 10:44:45;;;;;;;0.10;0.10;;;;;;;13.09;42.34;100137.03;5079129;28;20625;-61
2021/04/12 10:47:36;;;;;;;0.10;0.10;;;;;;;13.06;42.35;100148.47;5076393;28;20028;-61
2021/04/12 10:50:27;;;;;;;0.10;0.10;;;;;;;13.07;42.23;100142.75;5081852;28;20543;-62
2021/04/12 10:53:31;;;;;;;0.10;0.10;;;;;;;13.10;42.21;100155.22;5079982;28;20623;-63
2021/04/12 10:56:16;;;;;;;0.10;0.10;;;;;;;13.12;41.77;100153.13;5078390;28;20047;-63
2021/04/12 10:58:48;;;;;;;0.10;0.10;;;;;;;13.14;41.78;100153.75;5082411;28;20505;-60
2021/04/12 11:01:28;;;;;;;0.30;0.30;;;;;;;13.12;41.53;100153.97;5095768;28;20039;-60
2021/04/12 11:04:05;;;;;;;0.10;0.10;;;;;;;13.13;41.43;100157.56;5079507;28;20072;-61
2021/04/12 11:06:48;;;;;;;0.20;0.20;;;;;;;13.13;41.46;100160.31;5080880;28;20032;-61
2021/04/12 11:09:40;;;;;;;0.20;0.20;;;;;;;13.14;41.51;100165.59;5081929;28;20040;-61
2021/04/12 11:12:08;;;;;;;0.10;0.10;;;;;;;13.18;41.41;100162.44;5085957;28;20038;-64
2021/04/12 11:14:53;;;;;;;0.10;0.10;;;;;;;13.18;41.10;100167.94;5077872;28;20040;-61
2021/04/12 11:17:43;;;;;;;0.10;0.10;;;;;;;13.09;41.19;100161.84;5088418;28;20028;-60
2021/04/12 11:20:39;;;;;;;0.10;0.10;;;;;;;13.02;41.18;100161.84;5091753;28;20048;-60
2021/04/12 11:23:17;;;;;;;0.10;0.10;;;;;;;13.00;40.98;100155.72;5081521;28;20520;-60
2021/04/12 11:25:58;;;;;;;3.40;1.50;;;;;;;13.03;41.03;100158.03;5073000;28;20111;-63
2021/04/12 11:28:56;;;;;;;0.10;0.10;;;;;;;13.03;41.08;100162.69;5057659;28;20043;-61
2021/04/12 11:31:29;;;;;;;0.10;0.10;;;;;;;12.99;40.86;100173.31;5087515;28;20071;-61
2021/04/12 11:34:06;;;;;;;0.17;0.17;;;;;;;12.93;40.57;100164.00;5091394;28;20036;-61
2021/04/12 11:36:35;;;;;;;0.10;0.10;;;;;;;12.88;40.82;100182.25;5093170;28;20088;-60
2021/04/12 11:39:14;;;;;;;0.10;0.10;;;;;;;12.88;40.55;100165.72;5091652;28;20497;-63
2021/04/12 11:42:00;;;;;;;0.20;0.20;;;;;;;12.88;40.31;100166.56;5090712;28;20034;-60
2021/04/12 11:44:42;;;;;;;0.20;0.20;;;;;;;12.89;40.36;100165.50;5098214;28;20427;-62
2021/04/12 11:47:21;;;;;;;0.45;0.45;;;;;;;12.90;40.16;100167.19;5098522;28;20078;-62
2021/04/12 11:50:15;;;;;;;0.10;0.10;;;;;;;12.85;40.09;100155.94;5101733;28;20142;-59
2021/04/12 11:53:18;;;;;;;0.10;0.10;;;;;;;12.83;40.19;100160.84;5100201;28;20509;-62
2021/04/12 11:55:48;;;;;;;0.20;0.20;;;;;;;12.81;40.27;100165.75;5015133;28;20038;-61
2021/04/12 11:58:40;;;;;;;0.10;0.10;;;;;;;12.78;40.25;100172.53;5006439;28;20122;-62
2021/04/12 12:01:25;;;;;;;0.10;0.10;;;;;;;12.78;40.07;100175.28;5018900;28;20080;-62
2021/04/12 12:04:29;;;;;;;0.20;0.20;;;;;;;12.76;40.07;100179.31;5023662;28;20034;-61
2021/04/12 12:07:16;;;;;;;0.10;0.10;;;;;;;12.73;39.78;100175.06;5013120;28;20461;-61
2021/04/12 12:10:03;;;;;;;0.20;0.20;;;;;;;12.72;39.65;100183.56;5013172;28;20092;-61
2021/04/12 12:13:08;;;;;;;0.10;0.10;;;;;;;12.68;39.79;100174.88;5029597;28;20041;-62
2021/04/12 12:15:58;;;;;;;0.10;0.10;;;;;;;12.66;39.69;100187.19;5018190;28;20118;-61
2021/04/12 12:18:27;;;;;;;0.10;0.10;;;;;;;12.61;39.53;100183.16;5029435;28;20069;-61
2021/04/12 12:21:06;;;;;;;0.10;0.10;;;;;;;12.60;39.77;100186.13;5029317;28;20602;-61
2021/04/12 12:24:12;;;;;;;0.10;0.10;;;;;;;12.58;39.42;100194.59;5029538;28;20029;-66
2021/04/12 12:26:50;;;;;;;0.20;0.20;;;;;;;12.53;39.51;100194.41;5030757;28;20041;-63
2021/04/12 12:29:48;;;;;;;0.10;0.10;;;;;;;12.49;39.31;100204.16;5033389;28;20045;-62
2021/04/12 12:32:16;;;;;;;0.10;0.10;;;;;;;12.44;39.66;100203.97;4991073;28;20103;-61
2021/04/12 12:34:54;;;;;;;0.10;0.10;;;;;;;12.47;39.30;100197.16;5017480;28;20069;-60
2021/04/12 12:37:44;;;;;;;0.10;0.10;;;;;;;12.48;39.28;100191.44;5036260;28;20527;-59
2021/04/12 12:40:34;;;;;;;0.10;0.10;;;;;;;12.51;39.14;100199.28;5030706;28;20148;-59
2021/04/12 12:43:07;;;;;;;0.10;0.10;;;;;;;12.52;39.06;100194.63;5026370;28;20053;-60
2021/04/12 12:45:38;;;;;;;0.20;0.20;;;;;;;12.53;39.27;100196.31;5013527;28;20038;-56
2021/04/12 12:48:27;;;;;;;0.40;0.40;;;;;;;12.51;39.02;100203.94;5017494;28;20041;-58
2021/04/12 12:51:08;;;;;;;0.10;0.10;;;;;;;12.49;39.05;100195.91;5032422;28;20414;-59
2021/04/12 12:53:37;;;;;;;0.15;0.15;;;;;;;12.49;38.99;100195.91;5048564;28;20045;-57
2021/04/12 12:56:24;;;;;;;0.10;0.10;;;;;;;12.51;39.12;100210.28;5035359;28;20229;-61
2021/04/12 12:59:19;;;;;;;0.10;0.10;;;;;;;12.46;39.17;100212.03;5019094;28;20128;-61
2021/04/12 13:01:46;;;;;;;0.10;0.10;;;;;;;12.38;38.99;100222.19;5028401;28;20037;-60